createdAt,value
2019-01-17T00:00:01.099Z,17
2019-01-17T00:01:01.086Z,18
2019-01-17T00:02:01.087Z,16
2019-01-17T00:03:01.088Z,18
2019-01-17T00:04:01.125Z,20
2019-01-17T00:05:01.086Z,19
2019-01-17T00:06:01.087Z,17
2019-01-17T00:07:01.092Z,18
2019-01-17T00:08:01.088Z,17
2019-01-17T00:09:01.088Z,13
2019-01-17T00:10:01.121Z,14
2019-01-17T00:11:01.090Z,16
2019-01-17T00:12:01.086Z,17
2019-01-17T00:13:02.025Z,18
2019-01-17T00:14:01.089Z,17
2019-01-17T00:15:01.086Z,17
2019-01-17T00:16:01.122Z,16
2019-01-17T00:17:01.085Z,15
2019-01-17T00:18:01.085Z,14
2019-01-17T00:19:01.090Z,16
2019-01-17T00:21:01.093Z,15
2019-01-17T00:25:01.097Z,17
2019-01-17T00:26:01.091Z,18
2019-01-17T00:30:01.095Z,16
2019-01-17T00:33:01.130Z,18
2019-01-17T00:34:01.091Z,17
2019-01-17T00:38:01.125Z,16
2019-01-17T00:40:01.097Z,15
2019-01-17T00:42:01.117Z,13
2019-01-17T00:43:01.092Z,12
2019-01-17T00:45:01.093Z,14
2019-01-17T00:46:01.093Z,16
2019-01-17T00:47:03.348Z,17
2019-01-17T00:48:01.093Z,18
2019-01-17T00:50:01.097Z,19
2019-01-17T00:51:01.093Z,17
2019-01-17T00:52:02.153Z,18
2019-01-17T00:53:01.127Z,16
2019-01-17T00:55:01.099Z,14
2019-01-17T00:56:01.093Z,15
2019-01-17T00:57:01.095Z,14
2019-01-17T00:59:01.137Z,15
2019-01-17T01:00:01.095Z,16
2019-01-17T01:01:01.094Z,17
2019-01-17T01:02:01.095Z,19
2019-01-17T01:03:01.094Z,21
2019-01-17T01:04:01.131Z,22
2019-01-17T01:06:01.096Z,21
2019-01-17T01:07:01.096Z,19
2019-01-17T01:10:01.098Z,18
2019-01-17T01:11:01.096Z,19
2019-01-17T01:13:01.097Z,18
2019-01-17T01:15:01.082Z,17
2019-01-17T01:18:01.081Z,18
2019-01-17T01:19:01.082Z,17
2019-01-17T01:21:01.084Z,21
2019-01-17T01:22:01.085Z,20
2019-01-17T01:24:01.084Z,19
2019-01-17T01:25:01.086Z,20
2019-01-17T01:26:01.084Z,17
2019-01-17T01:27:01.084Z,18
2019-01-17T01:28:01.083Z,16
2019-01-17T01:30:01.088Z,14
2019-01-17T01:31:01.085Z,15
2019-01-17T01:32:01.086Z,14
2019-01-17T01:33:01.090Z,13
2019-01-17T01:34:03.201Z,14
2019-01-17T01:35:01.123Z,15
2019-01-17T01:36:01.442Z,16
2019-01-17T01:37:01.085Z,17
2019-01-17T01:38:01.086Z,18
2019-01-17T01:40:01.087Z,17
2019-01-17T01:41:01.125Z,18
2019-01-17T01:42:01.091Z,16
2019-01-17T01:43:01.091Z,18
2019-01-17T01:44:01.088Z,17
2019-01-17T01:45:01.092Z,17
2019-01-17T01:46:01.097Z,15
2019-01-17T01:47:01.123Z,16
2019-01-17T01:48:01.092Z,15
2019-01-17T01:51:01.093Z,16
2019-01-17T01:52:01.091Z,15
2019-01-17T01:53:01.127Z,16
2019-01-17T01:56:01.193Z,18
2019-01-17T01:57:01.092Z,19
2019-01-17T01:58:01.098Z,16
2019-01-17T01:59:01.120Z,17
2019-01-17T02:00:01.106Z,18
2019-01-17T02:01:01.091Z,15
2019-01-17T02:03:01.097Z,18
2019-01-17T02:04:02.149Z,17
2019-01-17T02:05:01.095Z,16
2019-01-17T02:06:01.097Z,18
2019-01-17T02:08:01.094Z,16
2019-01-17T02:09:02.156Z,17
2019-01-17T02:10:01.094Z,18
2019-01-17T02:11:01.095Z,17
2019-01-17T02:13:01.096Z,16
2019-01-17T02:14:01.122Z,17
2019-01-17T02:15:01.101Z,16
2019-01-17T02:16:01.095Z,17
2019-01-17T02:17:01.096Z,18
2019-01-17T02:18:02.383Z,17
2019-01-17T02:19:01.129Z,15
2019-01-17T02:21:01.083Z,16
2019-01-17T02:22:01.096Z,15
2019-01-17T02:27:01.083Z,17
2019-01-17T02:28:01.082Z,16
2019-01-17T02:30:02.112Z,16
2019-01-17T02:31:01.081Z,18
2019-01-17T02:32:01.087Z,16
2019-01-17T02:35:01.092Z,17
2019-01-17T02:36:01.084Z,16
2019-01-17T02:38:01.084Z,17
2019-01-17T02:39:01.113Z,19
2019-01-17T02:40:01.143Z,18
2019-01-17T02:41:01.086Z,16
2019-01-17T02:42:06.096Z,17
2019-01-17T02:43:01.110Z,16
2019-01-17T02:44:01.084Z,17
2019-01-17T02:45:01.090Z,18
2019-01-17T02:46:06.097Z,19
2019-01-17T02:47:01.090Z,17
2019-01-17T02:48:01.118Z,16
2019-01-17T02:49:01.086Z,17
2019-01-17T02:50:01.085Z,15
2019-01-17T02:51:01.898Z,17
2019-01-17T02:53:01.090Z,19
2019-01-17T02:54:01.117Z,16
2019-01-17T02:56:01.090Z,15
2019-01-17T02:59:01.127Z,17
2019-01-17T03:00:01.095Z,18
2019-01-17T03:01:01.091Z,19
2019-01-17T03:04:01.134Z,18
2019-01-17T03:05:01.123Z,17
2019-01-17T03:06:01.103Z,16
2019-01-17T03:07:01.089Z,17
2019-01-17T03:08:01.094Z,19
2019-01-17T03:09:01.091Z,18
2019-01-17T03:10:01.091Z,20
2019-01-17T03:12:02.158Z,21
2019-01-17T03:13:01.090Z,18
2019-01-17T03:14:01.093Z,19
2019-01-17T03:15:01.093Z,18
2019-01-17T03:16:01.129Z,17
2019-01-17T03:19:06.448Z,16
2019-01-17T03:21:01.130Z,15
2019-01-17T03:23:01.095Z,16
2019-01-17T03:24:01.096Z,19
2019-01-17T03:26:01.131Z,20
2019-01-17T03:27:02.120Z,21
2019-01-17T03:28:01.095Z,19
2019-01-17T03:29:01.094Z,17
2019-01-17T03:30:01.102Z,18
2019-01-17T03:31:01.141Z,17
2019-01-17T03:32:02.133Z,18
2019-01-17T03:35:01.101Z,17
2019-01-17T03:37:01.131Z,16
2019-01-17T03:39:01.083Z,15
2019-01-17T03:40:01.081Z,16
2019-01-17T03:41:01.079Z,15
2019-01-17T03:42:02.108Z,17
2019-01-17T03:43:01.120Z,16
2019-01-17T03:44:01.369Z,15
2019-01-17T03:45:01.112Z,14
2019-01-17T03:47:01.081Z,13
2019-01-17T03:48:01.118Z,14
2019-01-17T03:50:01.085Z,15
2019-01-17T03:54:01.116Z,17
2019-01-17T03:55:01.087Z,18
2019-01-17T03:56:01.093Z,19
2019-01-17T03:57:01.092Z,18
2019-01-17T04:00:01.087Z,16
2019-01-17T04:01:01.086Z,15
2019-01-17T04:02:01.090Z,17
2019-01-17T04:03:02.115Z,16
2019-01-17T04:04:01.093Z,17
2019-01-17T04:05:01.118Z,18
2019-01-17T04:06:01.089Z,19
2019-01-17T04:08:01.098Z,18
2019-01-17T04:11:01.119Z,19
2019-01-17T04:12:01.093Z,18
2019-01-17T04:13:01.102Z,19
2019-01-17T04:14:01.330Z,21
2019-01-17T04:15:01.090Z,19
2019-01-17T04:16:01.089Z,18
2019-01-17T04:18:01.089Z,19
2019-01-17T04:19:01.116Z,15
2019-01-17T04:20:06.108Z,14
2019-01-17T04:22:01.095Z,15
2019-01-17T04:23:01.099Z,14
2019-01-17T04:24:01.119Z,15
2019-01-17T04:25:01.125Z,16
2019-01-17T04:26:02.118Z,15
2019-01-17T04:28:01.092Z,16
2019-01-17T04:29:01.125Z,17
2019-01-17T04:30:02.408Z,17
2019-01-17T04:31:01.286Z,18
2019-01-17T04:33:01.093Z,16
2019-01-17T04:35:01.123Z,19
2019-01-17T04:36:01.093Z,18
2019-01-17T04:40:01.125Z,16
2019-01-17T04:41:01.099Z,17
2019-01-17T04:42:01.094Z,18
2019-01-17T04:44:01.098Z,17
2019-01-17T04:45:01.098Z,17
2019-01-17T04:48:01.081Z,16
2019-01-17T04:49:01.078Z,17
2019-01-17T04:52:01.104Z,16
2019-01-17T04:53:01.080Z,17
2019-01-17T04:54:01.081Z,19
2019-01-17T04:55:05.167Z,20
2019-01-17T04:56:02.228Z,21
2019-01-17T04:57:01.080Z,22
2019-01-17T04:58:01.078Z,20
2019-01-17T05:00:01.086Z,18
2019-01-17T05:03:03.132Z,17
2019-01-17T05:04:01.080Z,15
2019-01-17T05:05:01.083Z,16
2019-01-17T05:06:01.082Z,17
2019-01-17T05:07:01.082Z,16
2019-01-17T05:08:01.084Z,15
2019-01-17T05:09:01.113Z,16
2019-01-17T05:12:01.081Z,17
2019-01-17T05:13:01.207Z,18
2019-01-17T05:14:01.086Z,20
2019-01-17T05:15:01.232Z,19
2019-01-17T05:16:01.082Z,17
2019-01-17T05:17:01.092Z,16
2019-01-17T05:18:01.089Z,17
2019-01-17T05:19:01.165Z,15
2019-01-17T05:20:01.084Z,16
2019-01-17T05:21:01.082Z,18
2019-01-17T05:23:01.083Z,19
2019-01-17T05:24:02.134Z,20
2019-01-17T05:26:01.084Z,19
2019-01-17T05:27:01.087Z,18
2019-01-17T05:28:01.084Z,17
2019-01-17T05:29:01.111Z,18
2019-01-17T05:30:01.085Z,17
2019-01-17T05:34:01.107Z,18
2019-01-17T05:35:01.085Z,17
2019-01-17T05:37:01.083Z,19
2019-01-17T05:38:01.109Z,16
2019-01-17T05:40:01.084Z,17
2019-01-17T05:41:01.090Z,18
2019-01-17T05:42:01.147Z,16
2019-01-17T05:43:01.111Z,18
2019-01-17T05:45:01.135Z,18
2019-01-17T05:46:01.503Z,17
2019-01-17T05:48:01.596Z,16
2019-01-17T05:49:01.084Z,17
2019-01-17T05:50:01.088Z,18
2019-01-17T05:52:01.096Z,17
2019-01-17T05:54:01.114Z,16
2019-01-17T05:55:01.088Z,15
2019-01-17T05:56:01.089Z,17
2019-01-17T05:57:01.090Z,18
2019-01-17T05:58:01.113Z,19
2019-01-17T05:59:01.092Z,21
2019-01-17T06:00:01.090Z,20
2019-01-17T06:01:01.096Z,17
2019-01-17T06:03:01.114Z,16
2019-01-17T06:04:01.087Z,18
2019-01-17T06:06:01.120Z,19
2019-01-17T06:07:01.102Z,18
2019-01-17T06:09:02.117Z,15
2019-01-17T06:10:01.091Z,14
2019-01-17T06:12:01.125Z,15
2019-01-17T06:13:01.090Z,14
2019-01-17T06:15:01.092Z,15
2019-01-17T06:16:01.092Z,16
2019-01-17T06:17:01.124Z,15
2019-01-17T06:20:01.099Z,14
2019-01-17T06:21:01.097Z,15
2019-01-17T06:22:01.147Z,16
2019-01-17T06:25:02.124Z,17
2019-01-17T06:30:01.082Z,16
2019-01-17T06:31:01.080Z,17
2019-01-17T06:32:01.082Z,18
2019-01-17T06:33:02.055Z,19
2019-01-17T06:34:01.082Z,20
2019-01-17T06:35:01.085Z,21
2019-01-17T06:36:01.083Z,18
2019-01-17T06:37:01.083Z,17
2019-01-17T06:38:01.085Z,15
2019-01-17T06:39:02.143Z,17
2019-01-17T06:40:01.085Z,18
2019-01-17T06:43:01.083Z,19
2019-01-17T06:44:01.082Z,17
2019-01-17T06:45:01.083Z,16
2019-01-17T06:47:01.088Z,17
2019-01-17T06:48:01.087Z,16
2019-01-17T06:49:06.100Z,17
2019-01-17T06:50:01.086Z,18
2019-01-17T06:51:01.083Z,19
2019-01-17T06:53:01.084Z,18
2019-01-17T06:54:01.082Z,17
2019-01-17T06:55:02.112Z,16
2019-01-17T06:56:01.087Z,17
2019-01-17T06:57:01.093Z,15
2019-01-17T07:00:01.088Z,15
2019-01-17T07:01:01.085Z,14
2019-01-17T07:02:01.088Z,15
2019-01-17T07:03:01.085Z,17
2019-01-17T07:06:06.102Z,16
2019-01-17T07:07:01.084Z,17
2019-01-17T07:09:01.087Z,16
2019-01-17T07:10:01.085Z,18
2019-01-17T07:12:01.085Z,16
2019-01-17T07:13:01.086Z,15
2019-01-17T07:14:01.086Z,17
2019-01-17T07:15:01.638Z,15
2019-01-17T07:16:01.086Z,16
2019-01-17T07:17:01.086Z,17
2019-01-17T07:18:06.101Z,19
2019-01-17T07:19:01.085Z,18
2019-01-17T07:20:01.090Z,17
2019-01-17T07:22:01.085Z,16
2019-01-17T07:23:01.088Z,17
2019-01-17T07:24:01.086Z,16
2019-01-17T07:25:01.086Z,18
2019-01-17T07:27:01.091Z,19
2019-01-17T07:28:01.092Z,20
2019-01-17T07:30:01.094Z,19
2019-01-17T07:31:06.093Z,20
2019-01-17T07:32:01.089Z,19
2019-01-17T07:33:01.091Z,17
2019-01-17T07:34:01.093Z,18
2019-01-17T07:36:01.128Z,16
2019-01-17T07:37:01.092Z,17
2019-01-17T07:38:01.095Z,16
2019-01-17T07:39:01.092Z,15
2019-01-17T07:40:02.137Z,16
2019-01-17T07:41:01.123Z,20
2019-01-17T07:42:01.091Z,19
2019-01-17T07:43:01.096Z,21
2019-01-17T07:45:01.099Z,22
2019-01-17T07:46:01.124Z,20
2019-01-17T07:47:01.109Z,19
2019-01-17T07:48:01.095Z,18
2019-01-17T07:49:01.091Z,19
2019-01-17T07:50:01.100Z,18
2019-01-17T07:51:06.104Z,16
2019-01-17T07:53:01.097Z,17
2019-01-17T07:54:01.092Z,15
2019-01-17T07:55:01.843Z,14
2019-01-17T07:56:01.623Z,15
2019-01-17T07:59:01.095Z,16
2019-01-17T08:00:06.115Z,17
2019-01-17T08:02:06.110Z,19
2019-01-17T08:04:01.080Z,18
2019-01-17T08:05:01.077Z,19
2019-01-17T08:06:01.080Z,18
2019-01-17T08:08:01.082Z,16
2019-01-17T08:10:01.081Z,15
2019-01-17T08:11:01.084Z,18
2019-01-17T08:12:04.984Z,19
2019-01-17T08:13:01.083Z,22
2019-01-17T08:14:01.082Z,20
2019-01-17T08:15:01.090Z,20
2019-01-17T08:16:01.085Z,17
2019-01-17T08:17:01.084Z,16
2019-01-17T08:18:01.083Z,14
2019-01-17T08:19:01.081Z,16
2019-01-17T08:21:01.086Z,15
2019-01-17T08:22:02.057Z,17
2019-01-17T08:23:01.083Z,16
2019-01-17T08:26:01.189Z,17
2019-01-17T08:27:01.086Z,16
2019-01-17T08:29:01.086Z,15
2019-01-17T08:30:01.087Z,15
2019-01-17T08:31:01.203Z,17
2019-01-17T08:34:01.092Z,18
2019-01-17T08:35:01.091Z,20
2019-01-17T08:36:01.090Z,18
2019-01-17T08:38:01.116Z,19
2019-01-17T08:40:01.094Z,18
2019-01-17T08:41:03.198Z,19
2019-01-17T08:43:01.090Z,18
2019-01-17T08:45:01.145Z,18
2019-01-17T08:46:01.092Z,17
2019-01-17T08:47:01.093Z,18
2019-01-17T08:48:01.098Z,20
2019-01-17T08:49:01.096Z,19
2019-01-17T08:51:01.096Z,17
2019-01-17T08:53:01.094Z,16
2019-01-17T08:54:01.093Z,17
2019-01-17T08:55:06.103Z,18
2019-01-17T08:56:01.124Z,20
2019-01-17T08:57:01.093Z,19
2019-01-17T08:58:01.096Z,20
2019-01-17T09:00:06.106Z,19
2019-01-17T09:03:01.108Z,18
2019-01-17T09:05:01.122Z,17
2019-01-17T09:06:01.105Z,18
2019-01-17T09:08:01.102Z,20
2019-01-17T09:09:01.097Z,19
2019-01-17T09:10:06.281Z,20
2019-01-17T09:11:01.100Z,19
2019-01-17T09:13:01.082Z,18
2019-01-17T09:14:02.109Z,16
2019-01-17T09:15:01.114Z,19
2019-01-17T09:16:01.086Z,20
2019-01-17T09:17:01.088Z,18
2019-01-17T09:18:01.083Z,19
2019-01-17T09:19:01.080Z,20
2019-01-17T09:20:01.110Z,17
2019-01-17T09:21:01.084Z,16
2019-01-17T09:22:01.085Z,18
2019-01-17T09:24:01.082Z,17
2019-01-17T09:29:01.080Z,18
2019-01-17T09:30:01.081Z,18
2019-01-17T09:32:01.087Z,19
2019-01-17T09:33:01.082Z,18
2019-01-17T09:37:01.083Z,17
2019-01-17T09:38:01.095Z,19
2019-01-17T09:39:01.107Z,18
2019-01-17T09:40:01.096Z,19
2019-01-17T09:41:01.081Z,20
2019-01-17T09:43:01.083Z,19
2019-01-17T09:44:01.107Z,21
2019-01-17T09:45:01.088Z,21
2019-01-17T09:46:01.083Z,19
2019-01-17T09:49:01.111Z,18
2019-01-17T09:50:01.087Z,17
2019-01-17T09:51:01.085Z,20
2019-01-17T09:52:01.082Z,19
2019-01-17T09:55:01.087Z,18
2019-01-17T09:56:01.086Z,14
2019-01-17T09:57:01.085Z,15
2019-01-17T09:59:01.120Z,14
2019-01-17T10:00:01.087Z,16
2019-01-17T10:02:01.087Z,18
2019-01-17T10:03:01.088Z,17
2019-01-17T10:04:01.111Z,18
2019-01-17T10:05:01.087Z,17
2019-01-17T10:06:01.088Z,19
2019-01-17T10:07:01.375Z,17
2019-01-17T10:08:01.085Z,16
2019-01-17T10:09:01.111Z,17
2019-01-17T10:10:01.089Z,16
2019-01-17T10:11:01.088Z,15
2019-01-17T10:12:01.103Z,16
2019-01-17T10:13:01.147Z,17
2019-01-17T10:14:01.086Z,16
2019-01-17T10:15:01.088Z,19
2019-01-17T10:16:01.087Z,20
2019-01-17T10:17:01.086Z,19
2019-01-17T10:20:01.090Z,17
2019-01-17T10:21:01.086Z,15
2019-01-17T10:22:01.099Z,17
2019-01-17T10:24:01.095Z,18
2019-01-17T10:25:01.089Z,19
2019-01-17T10:26:01.090Z,21
2019-01-17T10:27:01.088Z,20
2019-01-17T10:29:01.089Z,19
2019-01-17T10:30:01.092Z,18
2019-01-17T10:31:01.089Z,16
2019-01-17T10:32:01.090Z,15
2019-01-17T10:33:01.121Z,14
2019-01-17T10:34:01.090Z,13
2019-01-17T10:35:01.092Z,16
2019-01-17T10:36:01.090Z,17
2019-01-17T10:37:01.087Z,18
2019-01-17T10:38:01.088Z,19
2019-01-17T10:39:01.091Z,21
2019-01-17T10:40:01.126Z,18
2019-01-17T10:43:01.091Z,19
2019-01-17T10:45:01.093Z,20
2019-01-17T10:47:06.090Z,18
2019-01-17T10:49:01.093Z,16
2019-01-17T10:50:01.089Z,15
2019-01-17T10:52:01.093Z,17
2019-01-17T10:53:01.091Z,16
2019-01-17T10:56:01.121Z,18
2019-01-17T10:58:01.091Z,19
2019-01-17T11:00:01.089Z,19
2019-01-17T11:01:01.131Z,18
2019-01-17T11:02:01.089Z,16
2019-01-17T11:05:01.093Z,18
2019-01-17T11:06:01.123Z,19
2019-01-17T11:07:01.094Z,18
2019-01-17T11:08:02.116Z,17
2019-01-17T11:10:01.092Z,16
2019-01-17T11:11:02.117Z,15
2019-01-17T11:12:01.124Z,14
2019-01-17T11:15:01.090Z,15
2019-01-17T11:16:01.094Z,17
2019-01-17T11:18:01.092Z,19
2019-01-17T11:19:01.090Z,18
2019-01-17T11:20:01.090Z,16
2019-01-17T11:21:01.095Z,15
2019-01-17T11:22:01.136Z,16
2019-01-17T11:23:01.098Z,14
2019-01-17T11:24:01.101Z,15
2019-01-17T11:25:02.275Z,16
2019-01-17T11:26:01.093Z,17
2019-01-17T11:30:01.097Z,18
2019-01-17T11:31:06.108Z,17
2019-01-17T11:32:01.103Z,16
2019-01-17T11:37:01.096Z,19
2019-01-17T11:38:01.099Z,18
2019-01-17T11:40:01.132Z,17
2019-01-17T11:42:01.087Z,18
2019-01-17T11:43:02.379Z,17
2019-01-17T11:45:01.082Z,19
2019-01-17T11:46:01.082Z,18
2019-01-17T11:48:01.118Z,16
2019-01-17T11:49:01.085Z,19
2019-01-17T11:50:01.108Z,18
2019-01-17T11:51:01.082Z,19
2019-01-17T11:52:01.081Z,20
2019-01-17T11:53:01.081Z,21
2019-01-17T11:54:01.087Z,20
2019-01-17T11:56:01.085Z,19
2019-01-17T11:57:01.082Z,17
2019-01-17T11:58:01.085Z,15
2019-01-17T12:00:01.093Z,14
2019-01-17T12:01:01.084Z,15
2019-01-17T12:03:01.098Z,14
2019-01-17T12:05:01.088Z,17
2019-01-17T12:06:01.091Z,16
2019-01-17T12:07:01.087Z,17
2019-01-17T12:09:01.113Z,18
2019-01-17T12:10:01.086Z,17
2019-01-17T12:11:01.091Z,18
2019-01-17T12:13:01.091Z,17
2019-01-17T12:14:01.114Z,18
2019-01-17T12:15:01.088Z,18
2019-01-17T12:16:01.088Z,15
2019-01-17T12:18:01.088Z,16
2019-01-17T12:19:01.111Z,17
2019-01-17T12:20:01.087Z,18
2019-01-17T12:21:01.086Z,17
2019-01-17T12:22:01.088Z,18
2019-01-17T12:24:01.113Z,17
2019-01-17T12:26:01.086Z,19
2019-01-17T12:27:01.090Z,18
2019-01-17T12:30:01.091Z,18
2019-01-17T12:31:06.097Z,19
2019-01-17T12:32:01.091Z,20
2019-01-17T12:33:01.119Z,22
2019-01-17T12:34:01.089Z,21
2019-01-17T12:36:01.091Z,19
2019-01-17T12:38:01.121Z,17
2019-01-17T12:40:01.098Z,18
2019-01-17T12:41:01.092Z,15
2019-01-17T12:42:01.090Z,16
2019-01-17T12:43:01.118Z,17
2019-01-17T12:45:01.091Z,16
2019-01-17T12:46:01.099Z,18
2019-01-17T12:47:06.102Z,16
2019-01-17T12:48:01.119Z,15
2019-01-17T12:52:01.100Z,16
2019-01-17T12:54:06.103Z,17
2019-01-17T12:55:01.096Z,16
2019-01-17T13:02:01.076Z,15
2019-01-17T13:03:01.105Z,17
2019-01-17T13:04:01.084Z,16
2019-01-17T13:06:01.083Z,17
2019-01-17T13:07:01.110Z,18
2019-01-17T13:08:06.092Z,16
2019-01-17T13:09:01.082Z,17
2019-01-17T13:10:06.099Z,16
2019-01-17T13:11:01.081Z,15
2019-01-17T13:12:01.079Z,16
2019-01-17T13:13:06.084Z,18
2019-01-17T13:14:01.079Z,17
2019-01-17T13:15:01.082Z,17
2019-01-17T13:16:01.081Z,20
2019-01-17T13:17:01.094Z,18
2019-01-17T13:19:01.078Z,19
2019-01-17T13:21:01.079Z,17
2019-01-17T13:22:01.080Z,18
2019-01-17T13:23:01.081Z,19
2019-01-17T13:24:01.084Z,17
2019-01-17T13:25:01.084Z,19
2019-01-17T13:26:01.093Z,20
2019-01-17T13:27:01.167Z,18
2019-01-17T13:29:01.080Z,19
2019-01-17T13:30:01.081Z,17
2019-01-17T13:32:01.082Z,19
2019-01-17T13:33:01.082Z,17
2019-01-17T13:34:01.768Z,18
2019-01-17T13:35:01.089Z,19
2019-01-17T13:36:01.081Z,20
2019-01-17T13:37:01.084Z,21
2019-01-17T13:39:01.082Z,22
2019-01-17T13:40:01.081Z,21
2019-01-17T13:41:01.109Z,19
2019-01-17T13:42:01.083Z,18
2019-01-17T13:43:01.085Z,17
2019-01-17T13:44:01.084Z,16
2019-01-17T13:45:01.089Z,17
2019-01-17T13:48:01.086Z,18
2019-01-17T13:51:01.117Z,20
2019-01-17T13:53:01.102Z,19
2019-01-17T13:54:01.086Z,18
2019-01-17T13:55:02.120Z,16
2019-01-17T13:56:01.117Z,14
2019-01-17T13:59:01.087Z,16
2019-01-17T14:00:01.093Z,17
2019-01-17T14:02:06.096Z,18
2019-01-17T14:03:01.088Z,17
2019-01-17T14:06:01.091Z,16
2019-01-17T14:07:01.113Z,17
2019-01-17T14:09:01.095Z,16
2019-01-17T14:10:01.092Z,15
2019-01-17T14:12:02.143Z,14
2019-01-17T14:14:01.092Z,16
2019-01-17T14:15:01.091Z,18
2019-01-17T14:16:01.091Z,19
2019-01-17T14:19:01.090Z,16
2019-01-17T14:20:01.088Z,15
2019-01-17T14:21:01.090Z,16
2019-01-17T14:22:01.116Z,19
2019-01-17T14:23:01.089Z,21
2019-01-17T14:24:01.089Z,20
2019-01-17T14:25:01.099Z,21
2019-01-17T14:27:01.123Z,20
2019-01-17T14:28:01.088Z,19
2019-01-17T14:30:01.344Z,18
2019-01-17T14:31:01.089Z,17
2019-01-17T14:32:01.089Z,16
2019-01-17T14:33:01.095Z,17
2019-01-17T14:34:01.094Z,19
2019-01-17T14:35:01.095Z,18
2019-01-17T14:37:01.124Z,17
2019-01-17T14:38:01.092Z,16
2019-01-17T14:39:01.091Z,15
2019-01-17T14:40:01.099Z,17
2019-01-17T14:42:01.127Z,18
2019-01-17T14:44:01.158Z,17
2019-01-17T14:45:01.789Z,17
2019-01-17T14:47:01.129Z,16
2019-01-17T14:49:01.099Z,17
2019-01-17T14:51:01.143Z,16
2019-01-17T14:52:01.079Z,17
2019-01-17T14:54:01.148Z,18
2019-01-17T14:56:01.144Z,19
2019-01-17T14:58:01.146Z,20
2019-01-17T14:59:01.084Z,18
2019-01-17T15:00:01.083Z,19
2019-01-17T15:01:01.080Z,18
2019-01-17T15:04:01.086Z,17
2019-01-17T15:05:01.149Z,16
2019-01-17T15:08:01.122Z,14
2019-01-17T15:10:01.084Z,15
2019-01-17T15:11:02.405Z,12
2019-01-17T15:12:01.086Z,14
2019-01-17T15:13:01.083Z,16
2019-01-17T15:14:01.085Z,18
2019-01-17T15:15:01.148Z,18
2019-01-17T15:16:01.089Z,19
2019-01-17T15:17:01.087Z,17
2019-01-17T15:18:01.086Z,16
2019-01-17T15:19:11.093Z,17
2019-01-17T15:20:01.087Z,16
2019-01-17T15:22:01.090Z,18
2019-01-17T15:23:01.086Z,17
2019-01-17T15:24:01.090Z,15
2019-01-17T15:25:02.032Z,16
2019-01-17T15:26:01.089Z,18
2019-01-17T15:29:01.092Z,19
2019-01-17T15:30:01.093Z,17
2019-01-17T15:31:01.090Z,18
2019-01-17T15:34:01.095Z,17
2019-01-17T15:35:01.097Z,20
2019-01-17T15:36:01.092Z,18
2019-01-17T15:38:01.129Z,19
2019-01-17T15:40:01.104Z,16
2019-01-17T15:41:01.096Z,17
2019-01-17T15:42:02.123Z,16
2019-01-17T15:43:01.129Z,17
2019-01-17T15:44:01.094Z,18
2019-01-17T15:45:01.109Z,18
2019-01-17T15:46:01.550Z,17
2019-01-17T15:47:01.099Z,16
2019-01-17T15:51:01.095Z,18
2019-01-17T15:53:01.084Z,19
2019-01-17T15:55:01.080Z,17
2019-01-17T15:57:01.080Z,16
2019-01-17T15:59:06.090Z,18
2019-01-17T16:00:01.090Z,19
2019-01-17T16:03:01.091Z,20
2019-01-17T16:04:01.121Z,18
2019-01-17T16:07:01.086Z,19
2019-01-17T16:08:01.804Z,21
2019-01-17T16:09:01.130Z,23
2019-01-17T16:12:01.089Z,24
2019-01-17T16:13:01.088Z,20
2019-01-17T16:14:01.090Z,19
2019-01-17T16:15:06.095Z,16
2019-01-17T16:16:01.087Z,17
2019-01-17T16:17:01.086Z,16
2019-01-17T16:18:06.104Z,17
2019-01-17T16:19:01.089Z,15
2019-01-17T16:20:01.091Z,17
2019-01-17T16:21:06.106Z,16
2019-01-17T16:25:01.116Z,17
2019-01-17T16:26:01.090Z,19
2019-01-17T16:27:06.104Z,18
2019-01-17T16:28:01.106Z,17
2019-01-17T16:29:02.068Z,19
2019-01-17T16:30:06.103Z,19
2019-01-17T16:34:01.089Z,17
2019-01-17T16:36:01.089Z,15
2019-01-17T16:37:01.089Z,17
2019-01-17T16:38:01.095Z,18
2019-01-17T16:39:06.102Z,19
2019-01-17T16:40:01.116Z,18
2019-01-17T16:44:01.092Z,16
2019-01-17T16:45:06.106Z,17
2019-01-17T16:48:01.094Z,16
2019-01-17T16:49:01.094Z,17
2019-01-17T16:50:01.120Z,18
2019-01-17T16:56:01.157Z,20
2019-01-17T16:58:01.092Z,21
2019-01-17T16:59:01.122Z,20
2019-01-17T17:00:01.097Z,19
2019-01-17T17:01:01.096Z,18
2019-01-17T17:02:01.094Z,17
2019-01-17T17:05:06.119Z,19
2019-01-17T17:06:01.095Z,18
2019-01-17T17:08:01.079Z,19
2019-01-17T17:09:01.082Z,21
2019-01-17T17:11:01.207Z,19
2019-01-17T17:12:01.086Z,21
2019-01-17T17:13:01.082Z,20
2019-01-17T17:14:06.093Z,17
2019-01-17T17:15:01.087Z,17
2019-01-17T17:18:01.110Z,16
2019-01-17T17:19:01.086Z,17
2019-01-17T17:20:01.081Z,16
2019-01-17T17:22:01.108Z,15
2019-01-17T17:23:01.084Z,16
2019-01-17T17:27:01.117Z,17
2019-01-17T17:30:01.090Z,16
2019-01-17T17:32:01.086Z,15
2019-01-17T17:33:01.118Z,17
2019-01-17T17:36:01.086Z,18
2019-01-17T17:37:01.085Z,17
2019-01-17T17:38:02.195Z,15
2019-01-17T17:40:01.111Z,16
2019-01-17T17:42:01.086Z,17
2019-01-17T17:44:01.121Z,18
2019-01-17T17:45:01.087Z,16
2019-01-17T17:46:01.092Z,14
2019-01-17T17:47:01.088Z,15
2019-01-17T17:49:01.154Z,14
2019-01-17T17:51:02.075Z,15
2019-01-17T17:52:01.089Z,14
2019-01-17T17:54:01.088Z,16
2019-01-17T17:55:06.103Z,17
2019-01-17T17:56:01.089Z,18
2019-01-17T17:57:06.105Z,17
2019-01-17T17:58:02.221Z,18
2019-01-17T17:59:01.090Z,17
2019-01-17T18:00:01.093Z,17
2019-01-17T18:02:01.090Z,18
2019-01-17T18:03:01.121Z,16
2019-01-17T18:05:06.103Z,18
2019-01-17T18:06:01.090Z,17
2019-01-17T18:08:01.090Z,18
2019-01-17T18:10:01.122Z,17
2019-01-17T18:11:06.106Z,19
2019-01-17T18:14:01.126Z,18
2019-01-17T18:15:01.093Z,18
2019-01-17T18:16:01.100Z,17
2019-01-17T18:17:01.091Z,18
2019-01-17T18:18:01.092Z,17
2019-01-17T18:20:01.122Z,16
2019-01-17T18:21:01.098Z,14
2019-01-17T18:22:01.107Z,13
2019-01-17T18:23:01.092Z,16
2019-01-17T18:25:01.121Z,17
2019-01-17T18:26:01.094Z,19
2019-01-17T18:30:01.126Z,18
2019-01-17T18:32:01.097Z,19
2019-01-17T18:33:01.099Z,18
2019-01-17T18:35:06.106Z,19
2019-01-17T18:36:02.127Z,20
2019-01-17T18:38:01.080Z,18
2019-01-17T18:39:01.107Z,17
2019-01-17T18:40:01.080Z,18
2019-01-17T18:41:01.079Z,17
2019-01-17T18:42:01.080Z,16
2019-01-17T18:43:01.095Z,15
2019-01-17T18:44:01.103Z,16
2019-01-17T18:45:01.083Z,15
2019-01-17T18:46:01.078Z,17
2019-01-17T18:47:06.201Z,16
2019-01-17T18:49:01.087Z,15
2019-01-17T18:50:01.079Z,14
2019-01-17T18:51:01.079Z,13
2019-01-17T18:52:01.083Z,14
2019-01-17T18:53:01.107Z,15
2019-01-17T18:54:01.087Z,17
2019-01-17T18:55:01.079Z,18
2019-01-17T18:56:01.094Z,21
2019-01-17T18:57:01.085Z,20
2019-01-17T18:59:01.110Z,19
2019-01-17T19:00:01.081Z,19
2019-01-17T19:01:01.086Z,18
2019-01-17T19:03:01.110Z,17
2019-01-17T19:04:01.087Z,19
2019-01-17T19:05:01.083Z,21
2019-01-17T19:08:01.267Z,22
2019-01-17T19:10:01.092Z,20
2019-01-17T19:11:01.088Z,19
2019-01-17T19:12:01.088Z,18
2019-01-17T19:14:01.121Z,17
2019-01-17T19:15:01.089Z,14
2019-01-17T19:17:01.090Z,15
2019-01-17T19:18:01.087Z,16
2019-01-17T19:19:02.114Z,15
2019-01-17T19:20:01.116Z,18
2019-01-17T19:21:02.638Z,19
2019-01-17T19:22:01.092Z,18
2019-01-17T19:23:01.087Z,16
2019-01-17T19:24:01.087Z,15
2019-01-17T19:25:01.213Z,14
2019-01-17T19:29:01.086Z,17
2019-01-17T19:30:01.117Z,17
2019-01-17T19:32:01.092Z,19
2019-01-17T19:33:01.092Z,20
2019-01-17T19:34:01.091Z,18
2019-01-17T19:35:01.198Z,16
2019-01-17T19:37:06.104Z,15
2019-01-17T19:38:01.090Z,14
2019-01-17T19:39:01.088Z,16
2019-01-17T19:40:01.118Z,15
2019-01-17T19:41:01.090Z,17
2019-01-17T19:43:01.091Z,16
2019-01-17T19:44:01.088Z,15
2019-01-17T19:45:01.123Z,16
2019-01-17T19:46:01.091Z,13
2019-01-17T19:47:01.091Z,12
2019-01-17T19:48:06.094Z,13
2019-01-17T19:51:01.115Z,15
2019-01-17T19:52:01.090Z,16
2019-01-17T19:53:06.107Z,17
2019-01-17T19:57:01.119Z,18
2019-01-17T19:59:01.096Z,16
2019-01-17T20:00:01.142Z,17
2019-01-17T20:01:01.098Z,16
2019-01-17T20:02:01.095Z,15
2019-01-17T20:03:01.093Z,14
2019-01-17T20:04:06.103Z,16
2019-01-17T20:05:01.130Z,15
2019-01-17T20:06:01.093Z,18
2019-01-17T20:08:01.106Z,19
2019-01-17T20:09:01.095Z,18
2019-01-17T20:10:01.131Z,19
2019-01-17T20:12:06.111Z,20